Time;durP1;ratioP1;P1;durP2;ratioP2;P2;SDS_P1;SDS_P2;PMS_P1;PMS_P2;Temp;Humidity;BMP_temperature;BMP_pressure;BME280_temperature;BME280_humidity;BME280_pressure;Samples;Min_cycle;Max_cycle;Signal;HPM_P1;HPM_P2
2021/12/15 00:02:19;;;;;;;37.60;18.00;;;;;;;;;;5083367;28;20246;-79
2021/12/15 00:04:46;;;;;;;27.55;17.63;;;6.00;99.90;;;;;;5076728;28;20204;-79
2021/12/15 00:07:14;;;;;;;30.25;18.27;;;;;;;;;;5081047;28;20261;-79
2021/12/15 00:09:42;;;;;;;32.92;19.98;;;5.70;99.90;;;;;;5077225;28;20283;-79
2021/12/15 00:12:13;;;;;;;29.58;18.83;;;6.20;99.90;;;;;;5079528;28;20630;-79
2021/12/15 00:14:40;;;;;;;30.13;20.05;;;6.00;99.90;;;;;;5081924;28;20588;-79
2021/12/15 00:17:08;;;;;;;48.05;20.70;;;;;;;;;;5075952;28;20206;-79
2021/12/15 00:19:35;;;;;;;35.67;21.15;;;;;;;;;;5077839;28;20272;-79
2021/12/15 00:22:02;;;;;;;28.70;17.75;;;;;;;;;;5073427;28;20325;-79
2021/12/15 00:24:29;;;;;;;28.48;18.98;;;;;;;;;;5081746;28;20249;-79
2021/12/15 00:26:58;;;;;;;29.25;19.27;;;6.00;99.90;;;;;;5077469;28;20226;-79
2021/12/15 00:29:25;;;;;;;33.40;18.67;;;6.00;99.90;;;;;;5078220;28;20614;-79
2021/12/15 00:31:53;;;;;;;29.88;18.60;;;5.80;99.90;;;;;;5082174;28;20289;-79
2021/12/15 00:34:21;;;;;;;33.83;19.58;;;5.90;99.90;;;;;;5080245;28;20661;-79
2021/12/15 00:36:48;;;;;;;33.80;19.75;;;;;;;;;;5080586;28;20238;-79
2021/12/15 00:39:18;;;;;;;37.15;17.98;;;5.90;99.90;;;;;;5076936;28;20234;-79
2021/12/15 00:41:45;;;;;;;26.23;16.92;;;5.90;99.90;;;;;;5077819;28;20254;-79
2021/12/15 00:44:14;;;;;;;30.67;19.95;;;;;;;;;;5079206;28;20283;-79
2021/12/15 00:46:43;;;;;;;30.23;19.13;;;5.90;99.90;;;;;;5076961;28;20286;-79
2021/12/15 00:49:10;;;;;;;32.28;18.58;;;;;;;;;;5077950;28;20206;-79
2021/12/15 00:51:39;;;;;;;32.05;18.38;;;5.90;99.90;;;;;;5074230;28;20298;-79
2021/12/15 00:54:07;;;;;;;26.55;18.35;;;6.10;99.90;;;;;;5071811;28;20306;-79
2021/12/15 00:56:35;;;;;;;30.88;18.33;;;;;;;;;;5079525;28;20282;-79
2021/12/15 00:59:04;;;;;;;30.38;17.67;;;5.90;99.90;;;;;;5078726;28;20231;-79
2021/12/15 01:01:32;;;;;;;31.55;19.58;;;5.90;99.90;;;;;;5080373;28;20247;-79
2021/12/15 01:03:59;;;;;;;27.30;16.00;;;;;;;;;;5076197;28;20239;-79
2021/12/15 01:06:29;;;;;;;30.98;19.20;;;5.90;99.90;;;;;;5079632;28;20213;-78
2021/12/15 01:09:02;;;;;;;29.88;18.08;;;5.80;99.90;;;;;;5075205;28;20204;-79
2021/12/15 01:11:49;;;;;;;32.08;18.83;;;5.80;99.90;;;;;;5079137;28;20199;-79
2021/12/15 01:14:34;;;;;;;34.00;19.25;;;5.90;99.90;;;;;;5079508;28;20210;-79
2021/12/15 01:19:55;;;;;;;34.75;18.75;;;7.70;99.90;;;;;;5078816;28;20293;-79
2021/12/15 01:22:27;;;;;;;31.23;18.50;;;5.90;99.90;;;;;;5074263;28;20263;-79
2021/12/15 01:24:58;;;;;;;28.63;18.13;;;5.90;99.90;;;;;;5071017;28;20871;-79
2021/12/15 01:27:27;;;;;;;26.75;17.35;;;;;;;;;;5080581;28;20737;-79
2021/12/15 01:29:55;;;;;;;27.90;15.85;;;;;;;;;;5077870;28;20261;-79
2021/12/15 01:32:24;;;;;;;29.27;18.15;;;6.40;99.90;;;;;;5077955;28;20264;-79
2021/12/15 01:34:51;;;;;;;28.63;17.02;;;;;;;;;;5070640;28;20239;-79
2021/12/15 01:37:18;;;;;;;26.92;17.13;;;;;;;;;;5072123;28;20203;-79
2021/12/15 01:39:46;;;;;;;28.40;18.90;;;;;;;;;;5080363;28;20841;-79
2021/12/15 01:42:13;;;;;;;32.85;17.83;;;;;;;;;;5075056;28;20231;-79
2021/12/15 01:47:26;;;;;;;31.38;19.23;;;;;;;;;;5077136;28;20199;-79
2021/12/15 01:49:56;;;;;;;27.95;18.05;;;5.90;99.90;;;;;;5080260;28;20261;-79
2021/12/15 01:52:26;;;;;;;25.13;16.13;;;5.90;99.90;;;;;;5076909;28;20295;-79
2021/12/15 01:54:56;;;;;;;26.65;16.20;;;5.80;99.90;;;;;;5083406;28;20541;-79
2021/12/15 01:57:25;;;;;;;20.45;14.63;;;5.80;99.90;;;;;;5085462;28;20202;-79
2021/12/15 01:59:55;;;;;;;27.98;15.40;;;5.50;99.90;;;;;;5077594;28;20986;-79
2021/12/15 02:02:23;;;;;;;27.63;15.48;;;5.90;99.90;;;;;;5077520;28;20239;-79
2021/12/15 02:04:53;;;;;;;24.90;15.55;;;5.90;99.90;;;;;;5083347;28;20280;-79
2021/12/15 02:07:23;;;;;;;21.67;14.35;;;5.90;99.90;;;;;;5080662;28;20282;-79
2021/12/15 02:10:03;;;;;;;25.10;15.48;;;5.90;99.90;;;;;;5075399;28;20239;-79
2021/12/15 02:12:35;;;;;;;25.00;15.70;;;5.90;99.90;;;;;;5078533;28;20210;-79
2021/12/15 02:15:07;;;;;;;22.35;15.57;;;6.00;99.90;;;;;;5072740;28;20203;-79
2021/12/15 02:17:34;;;;;;;19.73;13.05;;;5.90;99.90;;;;;;5078427;28;20265;-79
2021/12/15 02:20:04;;;;;;;17.02;10.38;;;5.90;99.90;;;;;;5083011;28;20207;-79
2021/12/15 02:22:32;;;;;;;11.82;7.68;;;;;;;;;;5081015;28;20255;-79
2021/12/15 02:25:01;;;;;;;10.85;7.63;;;;;;;;;;5071861;28;20200;-79
2021/12/15 02:27:33;;;;;;;11.25;8.30;;;;;;;;;;5079016;28;20208;-79
2021/12/15 02:30:16;;;;;;;10.70;8.52;;;6.40;99.90;;;;;;5076944;28;20335;-79
2021/12/15 02:32:54;;;;;;;14.25;9.98;;;;;;;;;;5082933;28;20214;-79
2021/12/15 02:38:08;;;;;;;20.25;13.32;;;5.90;99.90;;;;;;5080487;28;20215;-79
2021/12/15 02:40:35;;;;;;;20.13;13.63;;;5.80;99.90;;;;;;5076673;28;20318;-79
2021/12/15 02:43:02;;;;;;;19.45;12.20;;;;;;;;;;5082664;28;20695;-78
2021/12/15 02:45:29;;;;;;;22.95;12.32;;;;;;;;;;5077121;28;20298;-79
2021/12/15 02:47:56;;;;;;;21.85;14.13;;;;;;;;;;5081428;28;20215;-79
2021/12/15 02:50:28;;;;;;;19.33;12.10;;;5.90;99.90;;;;;;5073762;28;20254;-79
2021/12/15 02:52:58;;;;;;;17.10;11.98;;;5.90;99.90;;;;;;5075494;28;20230;-79
2021/12/15 02:55:26;;;;;;;25.65;14.23;;;5.90;99.90;;;;;;5081070;28;20195;-79
2021/12/15 02:57:54;;;;;;;22.95;12.20;;;;;;;;;;5075417;28;20235;-79
2021/12/15 03:00:22;;;;;;;20.67;12.32;;;;;;;;;;5081764;28;20232;-79
2021/12/15 03:05:43;;;;;;;19.20;12.93;;;5.80;99.90;;;;;;5077431;28;20251;-79
2021/12/15 03:08:15;;;;;;;20.30;13.18;;;;;;;;;;5082668;28;20211;-79
2021/12/15 03:16:17;;;;;;;20.90;12.70;;;5.90;99.90;;;;;;5080420;28;20207;-79
2021/12/15 03:18:45;;;;;;;18.40;13.27;;;5.90;99.90;;;;;;5078632;28;20287;-79
2021/12/15 03:21:14;;;;;;;19.13;11.77;;;5.60;99.90;;;;;;5076190;28;21036;-79
2021/12/15 03:23:48;;;;;;;23.63;13.13;;;5.90;99.90;;;;;;5076024;28;20309;-79
2021/12/15 03:26:21;;;;;;;19.40;11.98;;;5.90;99.90;;;;;;5077122;28;20235;-79
2021/12/15 03:34:44;;;;;;;19.45;12.88;;;5.70;99.90;;;;;;5080319;28;20954;-79
2021/12/15 03:37:23;;;;;;;14.50;10.40;;;5.80;99.90;;;;;;5080496;28;20220;-79
2021/12/15 03:39:52;;;;;;;12.27;8.50;;;5.80;99.90;;;;;;5077138;28;20211;-79
2021/12/15 03:42:25;;;;;;;16.88;9.55;;;5.40;99.90;;;;;;5077782;28;20232;-79
2021/12/15 03:44:53;;;;;;;17.23;7.53;;;5.90;99.90;;;;;;5083950;28;20203;-79
2021/12/15 03:47:23;;;;;;;16.27;10.35;;;5.90;99.90;;;;;;5076351;28;20279;-79
2021/12/15 03:49:50;;;;;;;17.50;11.10;;;6.00;99.90;;;;;;5080719;28;20721;-79
2021/12/15 03:52:17;;;;;;;16.55;11.60;;;6.00;99.90;;;;;;5077608;28;20223;-79
2021/12/15 03:54:44;;;;;;;16.95;12.18;;;;;;;;;;5075952;28;20231;-79
2021/12/15 03:57:13;;;;;;;19.45;12.00;;;4.60;99.90;;;;;;5073394;28;20227;-79
2021/12/15 03:59:43;;;;;;;22.75;11.75;;;5.90;99.90;;;;;;5078745;28;20330;-79
2021/12/15 04:02:14;;;;;;;20.35;13.10;;;6.20;99.90;;;;;;5075967;28;20205;-79
2021/12/15 04:04:42;;;;;;;24.60;12.80;;;5.90;99.90;;;;;;5081143;28;20235;-79
2021/12/15 04:07:10;;;;;;;24.50;14.07;;;5.80;99.90;;;;;;5077587;28;20302;-79
2021/12/15 04:09:37;;;;;;;14.73;8.45;;;;;;;;;;5072150;28;20705;-79
2021/12/15 04:12:05;;;;;;;6.80;5.07;;;6.00;99.90;;;;;;5081039;28;20207;-79
2021/12/15 04:14:42;;;;;;;7.88;4.70;;;;;;;;;;5074763;28;20204;-79
2021/12/15 04:17:26;;;;;;;4.65;4.07;;;5.90;99.90;;;;;;5077687;28;20700;-79
2021/12/15 04:19:55;;;;;;;4.18;3.63;;;5.70;99.90;;;;;;5080981;28;20206;-79
2021/12/15 04:22:24;;;;;;;4.07;3.55;;;5.80;99.90;;;;;;5081464;28;20610;-79
2021/12/15 04:24:51;;;;;;;5.50;4.35;;;;;;;;;;5078749;28;20291;-79
2021/12/15 04:27:18;;;;;;;5.43;4.32;;;6.10;99.90;;;;;;5079348;28;20281;-79
2021/12/15 04:29:46;;;;;;;5.50;4.60;;;;;;;;;;5082918;28;20238;-79
2021/12/15 04:32:19;;;;;;;5.20;4.07;;;5.80;99.90;;;;;;5078864;28;20203;-79
2021/12/15 04:34:46;;;;;;;6.72;4.65;;;;;;;;;;5079715;28;20291;-79
2021/12/15 04:37:13;;;;;;;5.22;4.72;;;;;;;;;;5076923;28;20287;-79
2021/12/15 04:39:40;;;;;;;5.70;5.15;;;6.20;99.90;;;;;;5079281;28;20286;-79
2021/12/15 04:42:08;;;;;;;7.10;6.20;;;8.80;99.90;;;;;;5078915;28;20277;-79
2021/12/15 04:44:35;;;;;;;5.20;4.70;;;5.80;99.90;;;;;;5078032;28;20314;-79
2021/12/15 04:47:08;;;;;;;12.52;7.70;;;5.60;99.90;;;;;;5077828;28;20265;-79
2021/12/15 04:49:38;;;;;;;10.10;7.85;;;5.80;99.90;;;;;;5079680;28;20203;-79
2021/12/15 04:52:06;;;;;;;14.32;9.35;;;5.80;99.90;;;;;;5080595;28;20228;-79
2021/12/15 04:54:33;;;;;;;14.25;12.10;;;;;;;;;;5077276;28;20244;-79
2021/12/15 04:57:01;;;;;;;18.88;12.45;;;;;;;;;;5077440;28;20289;-79
2021/12/15 04:59:29;;;;;;;14.45;11.07;;;;;;;;;;5081095;28;20210;-79
2021/12/15 05:01:56;;;;;;;17.88;11.90;;;;;;;;;;5079490;28;20223;-79
2021/12/15 05:04:23;;;;;;;17.50;12.02;;;5.80;99.90;;;;;;5079460;28;20314;-79
2021/12/15 05:06:52;;;;;;;17.13;12.05;;;5.80;99.90;;;;;;5075574;28;20255;-79
2021/12/15 05:09:19;;;;;;;24.15;12.40;;;5.90;99.90;;;;;;5072829;28;20281;-79
2021/12/15 05:11:47;;;;;;;16.75;10.20;;;;;;;;;;5074625;28;20250;-79
2021/12/15 05:14:15;;;;;;;14.20;10.40;;;;;;;;;;5081974;28;20288;-79
2021/12/15 05:16:42;;;;;;;11.98;8.25;;;;;;;;;;5080580;28;20759;-79
2021/12/15 05:19:09;;;;;;;11.45;8.20;;;;;;;;;;5073097;28;20606;-79
2021/12/15 05:21:36;;;;;;;7.85;7.00;;;;;;;;;;5081569;28;20604;-79
2021/12/15 05:24:13;;;;;;;5.97;5.30;;;;;;;;;;5080414;28;20223;-79
2021/12/15 05:26:41;;;;;;;5.72;5.22;;;;;;;;;;5077882;28;20207;-78
2021/12/15 05:29:08;;;;;;;6.68;6.07;;;5.70;99.90;;;;;;5083606;28;20204;-78
2021/12/15 05:31:35;;;;;;;5.25;4.68;;;;;;;;;;5075938;28;20234;-79
2021/12/15 05:34:03;;;;;;;7.90;6.05;;;;;;;;;;5080429;28;20268;-79
2021/12/15 05:36:30;;;;;;;7.32;6.20;;;;;;;;;;5082891;28;20211;-78
2021/12/15 05:38:57;;;;;;;8.05;7.10;;;;;;;;;;5080065;28;20257;-78
2021/12/15 05:41:26;;;;;;;8.15;6.95;;;;;;;;;;5086076;28;20288;-79
2021/12/15 05:43:53;;;;;;;7.70;6.90;;;5.80;99.90;;;;;;5077983;28;20712;-78
2021/12/15 05:46:21;;;;;;;7.68;5.95;;;;;;;;;;5078981;28;20235;-78
2021/12/15 05:48:48;;;;;;;8.48;7.60;;;;;;;;;;5076663;28;20224;-78
2021/12/15 05:51:15;;;;;;;15.60;9.77;;;;;;;;;;5086805;28;20380;-79
2021/12/15 05:53:43;;;;;;;10.23;8.73;;;;;;;;;;5078680;28;20218;-79
2021/12/15 05:56:12;;;;;;;13.07;8.50;;;;;;;;;;5083795;28;20644;-80
2021/12/15 05:58:41;;;;;;;9.95;7.75;;;;;;;;;;5084685;28;20511;-80
2021/12/15 06:01:08;;;;;;;9.65;8.00;;;;;;;;;;5085698;28;20226;-80
2021/12/15 06:03:35;;;;;;;9.23;8.30;;;;;;;;;;5081780;28;20306;-80
2021/12/15 06:06:02;;;;;;;11.13;8.05;;;;;;;;;;5081495;28;20207;-80
2021/12/15 06:08:30;;;;;;;10.30;8.20;;;;;;;;;;5080170;28;20273;-80
2021/12/15 06:10:57;;;;;;;9.60;8.60;;;;;;;;;;5078509;28;20286;-80
2021/12/15 06:13:26;;;;;;;12.02;8.75;;;;;;;;;;5076432;28;20998;-80
2021/12/15 06:15:56;;;;;;;9.52;8.52;;;5.70;99.90;;;;;;5082039;28;20334;-81
2021/12/15 06:18:24;;;;;;;13.30;8.02;;;;;;;;;;5080467;28;20211;-80
2021/12/15 06:20:53;;;;;;;9.73;8.68;;;5.90;99.90;;;;;;5084040;28;20276;-81
2021/12/15 06:23:22;;;;;;;15.43;10.30;;;5.80;99.90;;;;;;5080695;28;20254;-80
2021/12/15 06:25:52;;;;;;;11.40;10.18;;;5.70;99.90;;;;;;5086868;28;20252;-80
2021/12/15 06:28:19;;;;;;;15.50;11.35;;;;;;;;;;5088953;28;20239;-80
2021/12/15 06:30:46;;;;;;;15.05;11.98;;;;;;;;;;5078852;28;20269;-80
2021/12/15 06:33:16;;;;;;;15.50;10.93;;;5.80;99.90;;;;;;5079808;28;20998;-81
2021/12/15 06:35:53;;;;;;;12.88;10.05;;;5.80;99.90;;;;;;5079780;28;20207;-81
2021/12/15 06:38:21;;;;;;;15.45;11.20;;;5.80;99.90;;;;;;5080491;28;20218;-80
2021/12/15 06:40:49;;;;;;;13.43;11.25;;;;;;;;;;5080692;28;21015;-81
2021/12/15 06:43:16;;;;;;;14.73;11.15;;;;;;;;;;5078259;28;20486;-81
2021/12/15 06:45:57;;;;;;;14.23;11.05;;;5.90;99.90;;;;;;5083414;28;20669;-81
2021/12/15 06:59:33;;;;;;;10.23;7.22;;;;;;;;;;5076333;28;20212;-81
2021/12/15 07:02:01;;;;;;;9.35;7.30;;;5.80;99.90;;;;;;5078653;28;20272;-81
2021/12/15 07:04:30;;;;;;;9.05;7.93;;;5.80;99.90;;;;;;5081422;28;20288;-82
2021/12/15 07:06:57;;;;;;;14.73;9.00;;;5.90;99.90;;;;;;5080581;28;20257;-82
2021/12/15 07:09:25;;;;;;;10.50;8.65;;;5.90;99.90;;;;;;5078774;28;20257;-81
2021/12/15 07:11:55;;;;;;;9.38;8.35;;;5.80;99.90;;;;;;5077901;28;20742;-81
2021/12/15 07:14:23;;;;;;;13.90;10.13;;;;;;;;;;5079853;28;20763;-81
2021/12/15 07:16:52;;;;;;;13.05;10.35;;;5.80;99.90;;;;;;5076924;28;20212;-81
2021/12/15 07:19:31;;;;;;;17.77;11.90;;;;;;;;;;5082675;28;20206;-82
2021/12/15 07:22:09;;;;;;;15.57;11.82;;;5.80;99.90;;;;;;5070084;28;20207;-81
2021/12/15 07:24:37;;;;;;;20.67;14.13;;;5.90;99.90;;;;;;5079612;28;20245;-81
2021/12/15 07:27:07;;;;;;;20.70;14.20;;;6.00;99.90;;;;;;5082644;28;20199;-82
2021/12/15 07:29:34;;;;;;;15.20;11.60;;;;;;;;;;5077486;28;20204;-81
2021/12/15 07:32:01;;;;;;;18.08;12.02;;;;;;;;;;5081885;28;20293;-81
2021/12/15 07:34:29;;;;;;;17.42;12.98;;;;;;;;;;5082843;28;20281;-81
2021/12/15 07:36:56;;;;;;;22.17;13.98;;;;;;;;;;5080786;28;20285;-81
2021/12/15 07:39:24;;;;;;;19.63;11.88;;;;;;;;;;5084093;28;20238;-82
2021/12/15 07:41:54;;;;;;;19.15;12.13;;;;;;;;;;5072725;28;20200;-81
2021/12/15 07:44:22;;;;;;;18.45;12.52;;;5.70;99.90;;;;;;5080117;28;20230;-82
2021/12/15 07:46:51;;;;;;;19.23;13.50;;;5.90;99.90;;;;;;5085050;28;20313;-81
2021/12/15 07:49:19;;;;;;;34.00;14.45;;;;;;;;;;5083553;28;20610;-82
2021/12/15 07:51:47;;;;;;;23.35;15.05;;;;;;;;;;5078787;28;20210;-81
2021/12/15 07:54:16;;;;;;;15.50;10.80;;;5.70;99.90;;;;;;5081713;28;20212;-82
2021/12/15 07:56:44;;;;;;;21.45;11.73;;;5.90;99.90;;;;;;5081061;28;20207;-81
2021/12/15 07:59:11;;;;;;;16.73;11.52;;;;;;;;;;5088248;28;20310;-81
2021/12/15 08:01:39;;;;;;;32.05;14.00;;;5.80;99.90;;;;;;5081424;28;20231;-80
2021/12/15 08:04:06;;;;;;;17.50;11.98;;;;;;;;;;5080609;28;20219;-80
2021/12/15 08:06:33;;;;;;;13.93;9.93;;;6.20;99.90;;;;;;5082378;28;20282;-81
2021/12/15 08:09:00;;;;;;;12.77;9.18;;;;;;;;;;5084564;28;20264;-81
2021/12/15 08:11:28;;;;;;;11.80;8.70;;;;;;;;;;5080706;28;20252;-81
2021/12/15 08:13:57;;;;;;;15.90;10.65;;;6.00;99.90;;;;;;5082436;28;20252;-80
2021/12/15 08:16:24;;;;;;;12.80;10.63;;;;;;;;;;5082043;28;20241;-81
2021/12/15 08:18:51;;;;;;;16.45;10.63;;;;;;;;;;5081537;28;20203;-81
2021/12/15 08:21:19;;;;;;;14.50;10.73;;;;;;;;;;5080540;28;20267;-80
2021/12/15 08:23:46;;;;;;;16.60;11.20;;;;;;;;;;5084851;28;20244;-81
2021/12/15 08:26:13;;;;;;;17.55;11.50;;;;;;;;;;5083772;28;20253;-81
2021/12/15 08:28:40;;;;;;;17.15;10.10;;;6.20;99.90;;;;;;5079806;28;20207;-81
2021/12/15 08:31:09;;;;;;;14.75;10.85;;;6.00;99.90;;;;;;5082037;28;20226;-81
2021/12/15 08:33:37;;;;;;;13.40;9.55;;;6.00;99.90;;;;;;5081433;28;20195;-81
2021/12/15 08:36:07;;;;;;;15.57;9.90;;;6.50;99.90;;;;;;5080149;28;20253;-81
2021/12/15 08:38:38;;;;;;;16.27;9.95;;;5.90;99.90;;;;;;5078306;28;20673;-81
2021/12/15 08:41:08;;;;;;;15.25;9.48;;;6.00;99.90;;;;;;5077636;28;20265;-81
2021/12/15 08:43:36;;;;;;;11.52;8.20;;;6.70;99.90;;;;;;5080552;28;20210;-82
2021/12/15 08:46:06;;;;;;;10.20;8.45;;;6.00;99.90;;;;;;5076130;28;20212;-81
2021/12/15 08:48:35;;;;;;;12.63;8.63;;;5.90;99.90;;;;;;5080135;28;20202;-81
2021/12/15 08:51:04;;;;;;;10.45;7.93;;;5.80;99.90;;;;;;5076468;28;20202;-82
2021/12/15 08:53:32;;;;;;;12.25;7.93;;;5.80;99.90;;;;;;5081233;28;20275;-81
2021/12/15 08:55:59;;;;;;;10.85;8.00;;;5.80;99.90;;;;;;5083574;28;20215;-82
2021/12/15 08:58:27;;;;;;;12.30;7.10;;;;;;;;;;5077640;28;20701;-82
2021/12/15 09:00:57;;;;;;;7.85;7.05;;;5.90;99.90;;;;;;5083527;28;20203;-82
2021/12/15 09:03:25;;;;;;;9.50;6.35;;;5.90;99.90;;;;;;5081224;28;20294;-81
2021/12/15 09:05:55;;;;;;;8.77;6.22;;;6.00;99.90;;;;;;5078692;28;20258;-82
2021/12/15 09:08:23;;;;;;;10.00;6.28;;;;;;;;;;5074896;28;20237;-81
2021/12/15 09:10:53;;;;;;;8.27;6.32;;;5.80;99.90;;;;;;5079368;28;20233;-81
2021/12/15 09:13:20;;;;;;;7.65;5.68;;;5.70;99.90;;;;;;5084584;28;20199;-81
2021/12/15 09:15:47;;;;;;;6.80;6.07;;;;;;;;;;5082447;28;20217;-81
2021/12/15 09:18:14;;;;;;;8.50;6.07;;;;;;;;;;5087154;28;20219;-81
2021/12/15 09:20:44;;;;;;;12.43;6.20;;;6.00;99.90;;;;;;5081938;28;20286;-82
2021/12/15 09:23:16;;;;;;;7.95;5.82;;;6.00;99.90;;;;;;5081359;28;20260;-81
2021/12/15 09:25:44;;;;;;;9.13;6.70;;;5.50;99.90;;;;;;5078494;28;20242;-82
2021/12/15 09:28:11;;;;;;;9.63;5.65;;;6.20;99.90;;;;;;5087414;28;20261;-82
2021/12/15 09:30:44;;;;;;;7.95;6.38;;;6.00;99.90;;;;;;5079874;28;20209;-82
2021/12/15 09:33:11;;;;;;;10.55;5.55;;;6.00;99.90;;;;;;5081073;28;20210;-81
2021/12/15 09:35:38;;;;;;;8.38;6.28;;;5.80;99.90;;;;;;5083264;28;20322;-82
2021/12/15 09:38:06;;;;;;;7.20;5.82;;;;;;;;;;5078301;28;20212;-81
2021/12/15 09:40:34;;;;;;;8.50;6.22;;;6.00;99.90;;;;;;5089456;28;20668;-81
2021/12/15 09:43:03;;;;;;;9.73;6.72;;;;;;;;;;5088781;28;20219;-81
2021/12/15 09:45:40;;;;;;;6.53;5.53;;;;;;;;;;5089645;28;20231;-82
2021/12/15 09:57:07;;;;;;;8.27;5.95;;;5.90;99.90;;;;;;5078330;28;20739;-82
2021/12/15 10:02:47;;;;;;;9.23;6.00;;;6.50;99.90;;;;;;5079492;28;20222;-81
2021/12/15 10:05:38;;;;;;;7.28;5.57;;;4.20;99.90;;;;;;5080733;28;20223;-81
2021/12/15 10:11:42;;;;;;;7.50;6.00;;;6.10;99.90;;;;;;5075655;28;20225;-82
2021/12/15 10:19:51;;;;;;;7.10;4.45;;;5.90;99.90;;;;;;5079712;28;20211;-81
2021/12/15 10:22:30;;;;;;;8.18;5.78;;;6.00;99.90;;;;;;5079220;28;20298;-82
2021/12/15 10:25:00;;;;;;;7.78;6.53;;;6.10;99.90;;;;;;5082475;28;20249;-81
2021/12/15 10:27:38;;;;;;;9.05;7.20;;;6.00;99.90;;;;;;5081192;28;20250;-81
2021/12/15 10:30:14;;;;;;;6.93;6.15;;;5.90;99.90;;;;;;5083603;28;20215;-81
2021/12/15 10:32:44;;;;;;;10.50;7.50;;;6.00;99.90;;;;;;5074393;28;20230;-81
2021/12/15 10:35:13;;;;;;;14.77;5.75;;;5.80;99.90;;;;;;5079427;28;20207;-81
2021/12/15 10:37:41;;;;;;;7.43;5.32;;;5.90;99.90;;;;;;5081423;28;20737;-81
2021/12/15 10:40:11;;;;;;;8.02;5.60;;;5.80;99.90;;;;;;5081015;28;20215;-82
2021/12/15 10:42:39;;;;;;;6.63;5.93;;;;;;;;;;5082709;28;20204;-81
2021/12/15 10:45:08;;;;;;;7.40;5.10;;;5.90;99.90;;;;;;5082100;28;20272;-81
2021/12/15 10:47:45;;;;;;;5.90;5.30;;;5.90;99.90;;;;;;5080615;28;20731;-81
2021/12/15 10:50:14;;;;;;;7.00;5.72;;;6.20;99.90;;;;;;5082677;28;20210;-82
2021/12/15 10:52:55;;;;;;;7.95;5.47;;;5.90;99.90;;;;;;5084326;28;20682;-81
2021/12/15 10:55:29;;;;;;;9.88;6.13;;;6.00;99.90;;;;;;5081907;28;20594;-81
2021/12/15 10:57:56;;;;;;;8.50;6.63;;;;;;;;;;5078838;28;20214;-81
2021/12/15 11:00:24;;;;;;;6.38;5.55;;;6.00;99.90;;;;;;5081289;28;20863;-82
2021/12/15 11:03:01;;;;;;;7.53;6.30;;;5.80;99.90;;;;;;5084393;28;20675;-81
2021/12/15 11:05:28;;;;;;;7.97;5.07;;;;;;;;;;5082971;28;20233;-82
2021/12/15 11:07:58;;;;;;;8.05;5.85;;;6.00;99.90;;;;;;5078671;28;20307;-81
2021/12/15 11:10:29;;;;;;;7.80;5.97;;;6.00;99.90;;;;;;5077552;28;20315;-81
2021/12/15 11:12:58;;;;;;;6.80;5.43;;;5.50;99.90;;;;;;5081619;28;20290;-81
2021/12/15 11:15:27;;;;;;;9.27;6.13;;;5.90;99.90;;;;;;5081901;28;20214;-81
2021/12/15 11:17:58;;;;;;;11.45;6.35;;;6.00;99.90;;;;;;5081129;28;20202;-81
2021/12/15 11:20:28;;;;;;;10.75;6.07;;;6.10;99.90;;;;;;5077459;28;20208;-81
2021/12/15 11:23:01;;;;;;;6.85;5.70;;;6.20;99.90;;;;;;5080441;28;20200;-82
2021/12/15 11:25:33;;;;;;;7.68;5.47;;;6.00;99.90;;;;;;5078851;28;20223;-81
2021/12/15 11:28:04;;;;;;;7.40;5.45;;;5.30;99.90;;;;;;5080017;28;20671;-81
2021/12/15 11:30:36;;;;;;;8.63;6.68;;;5.90;99.90;;;;;;5079099;28;20272;-81
2021/12/15 11:33:06;;;;;;;9.57;6.53;;;;;;;;;;5080888;28;20252;-81
2021/12/15 11:35:36;;;;;;;7.90;6.05;;;5.90;99.90;;;;;;5081201;28;20214;-81
2021/12/15 11:38:06;;;;;;;8.38;5.75;;;5.80;99.90;;;;;;5078842;28;20234;-81
2021/12/15 11:40:39;;;;;;;7.32;5.78;;;5.90;99.90;;;;;;5080634;28;20284;-81
2021/12/15 11:43:07;;;;;;;9.18;7.10;;;6.30;99.90;;;;;;5076505;28;20207;-81
2021/12/15 11:45:36;;;;;;;10.48;7.90;;;6.00;99.90;;;;;;5081730;28;20281;-81
2021/12/15 11:48:16;;;;;;;10.63;7.78;;;6.10;99.90;;;;;;5079406;28;20752;-81
2021/12/15 11:50:44;;;;;;;8.50;6.00;;;5.90;99.90;;;;;;5083788;28;20582;-81
2021/12/15 11:53:29;;;;;;;7.22;6.28;;;5.80;99.90;;;;;;5079046;28;20253;-81
2021/12/15 11:56:25;;;;;;;8.50;5.88;;;6.00;99.90;;;;;;5083023;28;20224;-81
2021/12/15 11:58:56;;;;;;;10.98;7.10;;;3.20;99.90;;;;;;5077361;28;20219;-82
2021/12/15 12:01:48;;;;;;;7.80;6.40;;;5.90;99.90;;;;;;5082811;28;20554;-82
2021/12/15 12:04:22;;;;;;;14.05;6.80;;;6.00;99.90;;;;;;5079804;28;20203;-81
2021/12/15 12:06:51;;;;;;;7.15;6.13;;;5.90;99.90;;;;;;5085335;28;20309;-81
2021/12/15 12:09:20;;;;;;;9.23;6.93;;;5.80;99.90;;;;;;5077624;28;20870;-81
2021/12/15 12:11:51;;;;;;;9.68;6.70;;;;;;;;;;5077469;28;20670;-81
2021/12/15 12:14:37;;;;;;;10.32;6.90;;;6.40;99.90;;;;;;5079302;28;20203;-82
2021/12/15 12:17:05;;;;;;;7.88;6.38;;;;;;;;;;5080054;28;20206;-81
2021/12/15 12:19:34;;;;;;;12.82;7.93;;;;;;;;;;5088258;28;20206;-82
2021/12/15 12:22:01;;;;;;;10.32;7.72;;;;;;;;;;5084091;28;20234;-81
2021/12/15 12:24:33;;;;;;;8.88;6.50;;;;;;;;;;5082626;28;20199;-81
2021/12/15 12:27:00;;;;;;;10.35;7.93;;;6.10;99.90;;;;;;5076119;28;20735;-81
2021/12/15 12:29:28;;;;;;;10.43;7.88;;;6.00;99.90;;;;;;5078740;28;20234;-81
2021/12/15 12:31:55;;;;;;;9.57;7.68;;;;;;;;;;5082872;28;20196;-81
2021/12/15 12:34:22;;;;;;;10.70;8.18;;;6.00;99.90;;;;;;5083454;28;20287;-81
2021/12/15 12:36:51;;;;;;;10.55;7.95;;;;;;;;;;5080835;28;20730;-81
2021/12/15 12:39:21;;;;;;;11.32;8.65;;;;;;;;;;5075478;28;20242;-81
2021/12/15 12:41:51;;;;;;;11.07;9.45;;;5.70;99.90;;;;;;5074579;28;20257;-81
2021/12/15 12:44:23;;;;;;;14.02;9.68;;;5.90;99.90;;;;;;5079134;28;20277;-82
2021/12/15 12:47:00;;;;;;;11.57;8.57;;;6.00;99.90;;;;;;5083774;28;20800;-81
2021/12/15 12:49:59;;;;;;;12.13;8.30;;;6.00;99.90;;;;;;5079828;28;20605;-81
2021/12/15 12:59:23;;;;;;;8.95;7.25;;;5.70;99.90;;;;;;5077665;28;20270;-82
2021/12/15 13:00:54;;;;;;;11.98;8.57;;;5.80;99.90;;;;;;5075580;28;20578;-81
2021/12/15 13:03:31;;;;;;;10.73;8.10;;;5.80;99.90;;;;;;5078162;28;20223;-81
2021/12/15 13:06:01;;;;;;;10.23;7.80;;;5.80;99.90;;;;;;5078823;28;20227;-81
2021/12/15 13:08:38;;;;;;;16.70;9.52;;;6.10;99.90;;;;;;5079280;28;20207;-81
2021/12/15 13:11:15;;;;;;;11.85;8.05;;;5.90;99.90;;;;;;5076915;28;20198;-81
2021/12/15 13:13:56;;;;;;;11.90;9.25;;;5.30;99.90;;;;;;5078330;28;20576;-81
2021/12/15 13:16:26;;;;;;;9.13;8.23;;;5.90;99.90;;;;;;5082506;28;20207;-81
2021/12/15 13:18:56;;;;;;;9.45;8.48;;;5.90;99.90;;;;;;5079553;28;20207;-81
2021/12/15 13:21:41;;;;;;;12.48;8.35;;;5.90;99.90;;;;;;5077019;28;20237;-81
2021/12/15 13:30:39;;;;;;;8.02;6.65;;;5.80;99.90;;;;;;5076869;28;20213;-81
2021/12/15 13:33:12;;;;;;;9.35;8.45;;;5.90;99.90;;;;;;5078505;28;20202;-81
2021/12/15 13:35:43;;;;;;;9.40;7.65;;;5.70;99.90;;;;;;5074730;28;20719;-81
2021/12/15 13:38:12;;;;;;;9.88;6.95;;;5.80;99.90;;;;;;5083552;28;20257;-81
2021/12/15 13:41:18;;;;;;;9.77;7.65;;;5.90;99.90;;;;;;5080521;28;20677;-81
2021/12/15 13:43:54;;;;;;;9.57;8.02;;;5.90;99.90;;;;;;5071813;28;20203;-81
2021/12/15 13:46:36;;;;;;;9.70;7.93;;;5.90;99.90;;;;;;5080876;28;20227;-81
2021/12/15 13:49:29;;;;;;;10.30;7.63;;;5.60;99.90;;;;;;5081353;28;20257;-81
2021/12/15 13:52:09;;;;;;;10.13;8.05;;;5.90;99.90;;;;;;5077976;28;20748;-81
2021/12/15 13:55:05;;;;;;;10.10;7.85;;;6.20;99.90;;;;;;5081143;28;20211;-81
2021/12/15 13:57:38;;;;;;;9.85;8.93;;;5.80;99.90;;;;;;5080159;28;20219;-82
2021/12/15 14:00:23;;;;;;;9.10;7.85;;;5.70;99.90;;;;;;5086465;28;20610;-82
2021/12/15 14:03:04;;;;;;;8.30;7.38;;;5.80;99.90;;;;;;5083257;28;20305;-81
2021/12/15 14:05:33;;;;;;;9.80;8.48;;;5.80;99.90;;;;;;5079299;28;20804;-82
2021/12/15 14:08:04;;;;;;;9.77;8.30;;;5.70;99.90;;;;;;5082866;28;20208;-81
2021/12/15 14:11:02;;;;;;;10.32;8.35;;;5.70;99.90;;;;;;5082742;28;20231;-81
2021/12/15 14:13:52;;;;;;;10.98;7.80;;;5.70;99.90;;;;;;5082026;28;20656;-81
2021/12/15 14:16:40;;;;;;;8.75;7.18;;;5.90;99.90;;;;;;5076981;28;20262;-81
2021/12/15 14:19:10;;;;;;;8.18;6.88;;;5.90;99.90;;;;;;5081655;28;20199;-81
2021/12/15 14:21:38;;;;;;;9.60;7.40;;;;;;;;;;5083538;28;20211;-81
2021/12/15 14:24:07;;;;;;;7.57;6.47;;;5.90;99.90;;;;;;5084250;28;20217;-81
2021/12/15 14:26:36;;;;;;;8.85;7.40;;;5.40;99.90;;;;;;5084853;28;20717;-81
2021/12/15 14:29:16;;;;;;;8.32;7.50;;;5.80;99.90;;;;;;5080727;28;20199;-83
2021/12/15 14:31:46;;;;;;;8.32;6.25;;;5.80;99.90;;;;;;5078907;28;20718;-82
2021/12/15 14:34:16;;;;;;;10.32;6.13;;;5.60;99.90;;;;;;5072026;28;20231;-82
2021/12/15 14:36:45;;;;;;;7.68;6.53;;;5.70;99.90;;;;;;5081758;28;20268;-81
2021/12/15 14:39:14;;;;;;;8.15;7.40;;;5.70;99.90;;;;;;5082390;28;20741;-81
2021/12/15 14:41:44;;;;;;;8.60;7.72;;;5.80;99.90;;;;;;5082416;28;20260;-81
2021/12/15 14:44:13;;;;;;;7.20;6.45;;;5.70;99.90;;;;;;5080771;28;20195;-81